createdAt,value
2023-09-11T00:02:35.273Z,98928.49
2023-09-11T00:05:58.684Z,98930.53
2023-09-11T00:09:05.891Z,98927.45
2023-09-11T00:12:20.207Z,98933.48
2023-09-11T00:15:34.179Z,98923.93
2023-09-11T00:18:46.985Z,98930.31
2023-09-11T00:21:59.031Z,98925.14
2023-09-11T00:25:12.724Z,98926.25
2023-09-11T00:28:24.975Z,98919.58
2023-09-11T00:31:37.140Z,98921.45
2023-09-11T00:34:49.901Z,98914.50
2023-09-11T00:38:02.361Z,98908.94
2023-09-11T00:41:14.654Z,98912.16
2023-09-11T00:44:26.979Z,98912.36
2023-09-11T00:47:39.787Z,98908.18
2023-09-11T00:50:52.537Z,98905.88
2023-09-11T00:54:04.860Z,98906.23
2023-09-11T00:57:19.375Z,98898.91
2023-09-11T01:00:32.247Z,98899.91
2023-09-11T01:03:44.672Z,98897.41
2023-09-11T01:06:56.965Z,98894.88
2023-09-11T01:10:11.521Z,98886.56
2023-09-11T01:13:24.014Z,98896.65
2023-09-11T01:16:42.086Z,98893.50
2023-09-11T01:20:20.333Z,98885.53
2023-09-11T01:24:07.703Z,98893.47
2023-09-11T01:27:46.295Z,98894.84
2023-09-11T01:30:58.819Z,98897.06
2023-09-11T01:34:12.617Z,98893.54
2023-09-11T01:37:25.051Z,98884.56
2023-09-11T01:40:40.333Z,98884.81
2023-09-11T01:43:55.676Z,98883.59
2023-09-11T01:47:09.955Z,98875.92
2023-09-11T01:50:25.550Z,98874.62
2023-09-11T01:53:38.615Z,98879.33
2023-09-11T01:56:51.417Z,98877.83
2023-09-11T02:00:04.984Z,98878.86
2023-09-11T02:03:19.381Z,98879.86
2023-09-11T02:06:32.044Z,98876.52
2023-09-11T02:09:44.328Z,98873.38
2023-09-11T02:12:56.515Z,98872.44
2023-09-11T02:16:11.106Z,98877.14
2023-09-11T02:19:23.319Z,98869.25
2023-09-11T02:22:36.290Z,98881.41
2023-09-11T02:25:49.501Z,98873.63
2023-09-11T02:29:02.049Z,98882.69
2023-09-11T02:32:14.842Z,98878.47
2023-09-11T02:35:27.062Z,98876.63
2023-09-11T02:38:39.489Z,98878.28
2023-09-11T02:41:52.196Z,98874.60
2023-09-11T02:45:04.416Z,98879.97
2023-09-11T02:48:17.163Z,98876.63
2023-09-11T02:51:29.920Z,98883.16
2023-09-11T02:54:42.169Z,98875.97
2023-09-11T02:57:54.519Z,98878.65
2023-09-11T03:01:11.201Z,98882.32
2023-09-11T03:04:23.430Z,98877.33
2023-09-11T03:07:35.676Z,98878.52
2023-09-11T03:10:54.234Z,98876.02
2023-09-11T03:14:06.387Z,98870.99
2023-09-11T03:17:18.475Z,98870.99
2023-09-11T03:20:31.130Z,98872.02
2023-09-11T03:23:43.620Z,98874.88
2023-09-11T03:26:56.601Z,98869.67
2023-09-11T03:30:09.436Z,98878.74
2023-09-11T03:33:22.292Z,98869.20
2023-09-11T03:36:34.694Z,98877.42
2023-09-11T03:39:47.259Z,98872.40
2023-09-11T03:42:59.517Z,98874.61
2023-09-11T03:46:13.811Z,98875.13
2023-09-11T03:49:27.032Z,98869.95
2023-09-11T03:52:39.312Z,98870.49
2023-09-11T03:55:51.861Z,98869.84
2023-09-11T03:59:04.490Z,98865.84
2023-09-11T04:02:16.969Z,98861.66
2023-09-11T04:05:29.364Z,98868.37
2023-09-11T04:08:41.832Z,98864.22
2023-09-11T04:11:54.288Z,98865.36
2023-09-11T04:15:06.669Z,98865.88
2023-09-11T04:18:19.450Z,98866.86
2023-09-11T04:21:32.839Z,98864.55
2023-09-11T04:24:45.216Z,98859.86
2023-09-11T04:27:57.482Z,98860.15
2023-09-11T04:31:09.808Z,98860.63
2023-09-11T04:34:23.736Z,98853.25
2023-09-11T04:37:36.012Z,98853.10
2023-09-11T04:40:48.572Z,98853.58
2023-09-11T04:44:00.836Z,98853.21
2023-09-11T04:47:16.009Z,98849.06
2023-09-11T04:50:28.290Z,98851.73
2023-09-11T04:53:40.537Z,98846.48
2023-09-11T04:56:53.109Z,98843.95
2023-09-11T05:00:07.479Z,98848.23
2023-09-11T05:03:20.015Z,98843.53
2023-09-11T05:06:32.839Z,98849.21
2023-09-11T05:09:47.290Z,98837.06
2023-09-11T05:13:00.559Z,98843.06
2023-09-11T05:16:13.850Z,98835.77
2023-09-11T05:19:26.031Z,98833.67
2023-09-11T05:22:38.557Z,98837.25
2023-09-11T05:25:52.551Z,98840.31
2023-09-11T05:29:04.913Z,98842.27
2023-09-11T05:32:17.119Z,98842.36
2023-09-11T05:35:29.710Z,98836.45
2023-09-11T05:38:42.247Z,98832.47
2023-09-11T05:41:55.046Z,98837.98
2023-09-11T05:45:07.759Z,98831.38
2023-09-11T05:48:20.302Z,98839.38
2023-09-11T05:51:32.754Z,98833.84
2023-09-11T05:54:45.231Z,98828.41
2023-09-11T05:57:57.333Z,98830.47
2023-09-11T06:01:09.757Z,98827.44
2023-09-11T06:04:21.938Z,98827.06
2023-09-11T06:07:34.100Z,98815.88
2023-09-11T06:10:47.384Z,98819.77
2023-09-11T06:13:59.749Z,98822.94
2023-09-11T06:17:12.414Z,98808.46
2023-09-11T06:20:25.032Z,98816.88
2023-09-11T06:23:37.506Z,98818.17
2023-09-11T06:26:51.116Z,98814.80
2023-09-11T06:30:05.511Z,98791.21
2023-09-11T06:33:18.407Z,98825.63
2023-09-11T06:36:30.794Z,98817.69
2023-09-11T06:39:43.407Z,98822.08
2023-09-11T06:42:55.735Z,98822.44
2023-09-11T06:46:08.268Z,98822.95
2023-09-11T06:49:20.744Z,98824.53
2023-09-11T06:52:35.421Z,98812.50
2023-09-11T06:55:54.952Z,98816.20
2023-09-11T06:59:07.248Z,98808.15
2023-09-11T07:02:19.474Z,98815.49
2023-09-11T07:05:31.841Z,98817.08
2023-09-11T07:08:44.661Z,98811.84
2023-09-11T07:11:58.814Z,98814.25
2023-09-11T07:15:13.235Z,98816.19
2023-09-11T07:18:25.544Z,98806.04
2023-09-11T07:21:37.993Z,98811.04
2023-09-11T07:24:50.453Z,98802.56
2023-09-11T07:28:03.968Z,98803.42
2023-09-11T07:31:16.271Z,98803.05
2023-09-11T07:34:28.679Z,98797.03
2023-09-11T07:37:41.061Z,98800.48
2023-09-11T07:40:53.341Z,98786.75
2023-09-11T07:44:06.321Z,98799.13
2023-09-11T07:47:18.578Z,98791.98
2023-09-11T07:50:31.280Z,98786.69
2023-09-11T07:53:44.398Z,98789.11
2023-09-11T07:56:56.741Z,98789.56
2023-09-11T08:00:10.588Z,98792.48
2023-09-11T08:03:23.363Z,98790.94
2023-09-11T08:06:35.852Z,98785.03
2023-09-11T08:09:48.083Z,98780.06
2023-09-11T08:13:00.861Z,98775.08
2023-09-11T08:16:13.289Z,98766.90
2023-09-11T08:19:25.710Z,98775.33
2023-09-11T08:22:38.588Z,98771.36
2023-09-11T08:25:51.206Z,98765.03
2023-09-11T08:29:04.448Z,98756.69
2023-09-11T08:32:16.896Z,98757.77
2023-09-11T08:35:29.356Z,98758.17
2023-09-11T08:38:44.334Z,98754.63
2023-09-11T08:42:00.359Z,98755.69
2023-09-11T08:45:14.810Z,98759.57
2023-09-11T08:48:30.829Z,98765.84
2023-09-11T08:51:48.313Z,98754.89
2023-09-11T08:55:05.146Z,98748.97
2023-09-11T08:58:23.605Z,98763.31
2023-09-11T09:01:37.718Z,98755.50
2023-09-11T09:04:51.119Z,98750.23
2023-09-11T09:08:04.020Z,98748.72
2023-09-11T09:11:16.343Z,98752.10
2023-09-11T09:14:30.264Z,98754.75
2023-09-11T09:17:43.899Z,98742.03
2023-09-11T09:20:57.378Z,98745.31
2023-09-11T09:24:19.565Z,98742.73
2023-09-11T09:27:33.752Z,98734.70
2023-09-11T09:30:47.330Z,98737.24
2023-09-11T09:34:01.604Z,98733.44
2023-09-11T09:37:21.841Z,98733.38
2023-09-11T09:40:41.629Z,98733.95
2023-09-11T09:44:01.309Z,98719.22
2023-09-11T09:47:17.726Z,98711.03
2023-09-11T09:50:30.085Z,98723.09
2023-09-11T09:53:46.859Z,98721.84
2023-09-11T09:57:01.742Z,98712.17
2023-09-11T10:00:19.430Z,98704.94
2023-09-11T10:03:32.934Z,98701.32
2023-09-11T10:06:46.644Z,98695.11
2023-09-11T10:09:59.094Z,98690.80
2023-09-11T10:13:15.388Z,98688.73
2023-09-11T10:16:28.410Z,98694.91
2023-09-11T10:19:42.416Z,98691.45
2023-09-11T10:22:54.757Z,98697.65
2023-09-11T10:26:12.560Z,98687.06
2023-09-11T10:29:30.510Z,98689.66
2023-09-11T10:32:58.951Z,98692.44
2023-09-11T10:36:17.440Z,98684.23
2023-09-11T10:39:30.041Z,98678.50
2023-09-11T10:42:43.094Z,98684.14
2023-09-11T10:45:55.838Z,98685.86
2023-09-11T10:49:20.177Z,98684.03
2023-09-11T10:52:32.821Z,98678.04
2023-09-11T10:55:45.384Z,98675.84
2023-09-11T10:59:00.013Z,98670.91
2023-09-11T11:02:13.110Z,98673.39
2023-09-11T11:05:25.859Z,98673.11
2023-09-11T11:08:42.729Z,98666.64
2023-09-11T11:11:55.400Z,98664.71
2023-09-11T11:15:29.588Z,98663.72
2023-09-11T11:18:42.475Z,98665.23
2023-09-11T11:21:55.695Z,98665.96
2023-09-11T11:25:11.549Z,98659.95
2023-09-11T11:28:30.802Z,98661.73
2023-09-11T11:31:44.604Z,98664.18
2023-09-11T11:34:57.570Z,98649.22
2023-09-11T11:38:10.292Z,98652.80
2023-09-11T11:41:22.584Z,98647.20
2023-09-11T11:44:37.022Z,98654.81
2023-09-11T11:47:50.249Z,98646.13
2023-09-11T11:51:03.290Z,98641.17
2023-09-11T11:54:27.096Z,98637.33
2023-09-11T11:57:41.369Z,98645.05
2023-09-11T12:01:06.947Z,98631.13
2023-09-11T12:04:32.185Z,98645.07
2023-09-11T12:07:34.156Z,98641.39
2023-09-11T12:10:51.045Z,98623.39
2023-09-11T12:14:03.854Z,98620.94
2023-09-11T12:17:18.355Z,98625.39
2023-09-11T12:20:31.276Z,98620.71
2023-09-11T12:23:43.582Z,98626.52
2023-09-11T12:26:56.334Z,98626.00
2023-09-11T12:30:10.455Z,98624.68
2023-09-11T12:33:28.357Z,98614.98
2023-09-11T12:36:41.227Z,98611.70
2023-09-11T12:39:55.078Z,98617.66
2023-09-11T12:43:11.787Z,98622.53
2023-09-11T12:46:24.283Z,98615.85
2023-09-11T12:49:36.811Z,98611.59
2023-09-11T12:52:51.897Z,98610.08
2023-09-11T12:56:04.186Z,98612.46
2023-09-11T12:59:17.540Z,98601.12
2023-09-11T13:02:29.959Z,98602.81
2023-09-11T13:05:44.894Z,98595.26
2023-09-11T13:08:59.321Z,98596.14
2023-09-11T13:12:12.490Z,98596.42
2023-09-11T13:15:25.805Z,98595.41
2023-09-11T13:18:38.281Z,98605.59
2023-09-11T13:21:50.646Z,98593.02
2023-09-11T13:25:02.962Z,98598.44
2023-09-11T13:28:15.891Z,98601.66
2023-09-11T13:31:28.075Z,98595.45
2023-09-11T13:34:40.244Z,98586.82
2023-09-11T13:37:52.752Z,98585.84
2023-09-11T13:41:05.021Z,98588.52
2023-09-11T13:44:18.292Z,98590.98
2023-09-11T13:47:30.906Z,98589.95
2023-09-11T13:50:43.271Z,98575.80
2023-09-11T13:53:55.817Z,98574.56
2023-09-11T13:57:08.563Z,98574.67
2023-09-11T14:00:23.712Z,98568.41
2023-09-11T14:03:37.094Z,98571.46
2023-09-11T14:06:51.167Z,98564.19
2023-09-11T14:10:05.552Z,98569.45
2023-09-11T14:13:19.956Z,98559.30
2023-09-11T14:16:32.268Z,98562.36
2023-09-11T14:19:44.686Z,98559.40
2023-09-11T14:22:57.324Z,98564.59
2023-09-11T14:26:09.727Z,98558.32
2023-09-11T14:29:22.356Z,98564.88
2023-09-11T14:32:34.771Z,98561.30
2023-09-11T14:35:47.058Z,98561.30
2023-09-11T14:39:01.617Z,98561.80
2023-09-11T14:42:15.493Z,98551.92
2023-09-11T14:45:28.435Z,98557.13
2023-09-11T14:48:40.994Z,98553.55
2023-09-11T14:51:53.838Z,98548.56
2023-09-11T14:55:06.801Z,98552.58
2023-09-11T14:58:19.171Z,98551.86
2023-09-11T15:01:32.681Z,98543.41
2023-09-11T15:04:51.011Z,98541.77
2023-09-11T15:07:59.616Z,98533.03
2023-09-11T15:11:12.209Z,98539.05
2023-09-11T15:14:24.726Z,98533.83
2023-09-11T15:17:37.116Z,98534.11
2023-09-11T15:20:50.955Z,98535.73
2023-09-11T15:24:04.436Z,98539.28
2023-09-11T15:27:16.746Z,98533.78
2023-09-11T15:30:29.085Z,98532.67
2023-09-11T15:33:41.648Z,98533.75
2023-09-11T15:36:53.929Z,98531.77
2023-09-11T15:40:06.279Z,98535.85
2023-09-11T15:43:18.508Z,98537.98
2023-09-11T15:46:41.228Z,98539.28
2023-09-11T15:49:45.290Z,98537.05
2023-09-11T15:52:57.593Z,98535.66
2023-09-11T15:56:10.855Z,98544.03
2023-09-11T15:59:23.283Z,98541.52
2023-09-11T16:02:36.696Z,98537.09
2023-09-11T16:05:50.319Z,98534.27
2023-09-11T16:09:03.086Z,98538.82
2023-09-11T16:12:15.833Z,98529.95
2023-09-11T16:15:28.803Z,98535.30
2023-09-11T16:18:41.737Z,98542.02
2023-09-11T16:21:54.916Z,98540.86
2023-09-11T16:25:07.596Z,98530.94
2023-09-11T16:28:20.936Z,98530.77
2023-09-11T16:31:33.309Z,98529.56
2023-09-11T16:34:45.663Z,98525.27
2023-09-11T16:37:58.404Z,98524.84
2023-09-11T16:41:10.793Z,98525.20
2023-09-11T16:44:24.101Z,98528.55
2023-09-11T16:47:37.292Z,98526.60
2023-09-11T16:50:49.729Z,98528.29
2023-09-11T16:54:02.552Z,98522.69
2023-09-11T16:57:15.268Z,98531.34
2023-09-11T17:00:28.187Z,98527.14
2023-09-11T17:03:40.686Z,98528.03
2023-09-11T17:06:53.451Z,98529.59
2023-09-11T17:10:05.865Z,98524.98
2023-09-11T17:13:18.934Z,98534.52
2023-09-11T17:16:33.590Z,98526.03
2023-09-11T17:19:47.049Z,98531.64
2023-09-11T17:22:59.931Z,98533.00
2023-09-11T17:26:14.264Z,98533.76
2023-09-11T17:29:28.870Z,98534.27
2023-09-11T17:32:41.347Z,98542.20
2023-09-11T17:35:54.064Z,98530.62
2023-09-11T17:39:07.076Z,98540.67
2023-09-11T17:42:19.648Z,98544.23
2023-09-11T17:45:32.597Z,98543.06
2023-09-11T17:48:46.314Z,98541.05
2023-09-11T17:51:58.895Z,98548.83
2023-09-11T17:55:13.087Z,98553.31
2023-09-11T17:58:26.383Z,98550.36
2023-09-11T18:01:38.516Z,98550.02
2023-09-11T18:04:51.335Z,98551.80
2023-09-11T18:08:05.726Z,98552.60
2023-09-11T18:11:20.610Z,98558.87
2023-09-11T18:14:33.643Z,98551.77
2023-09-11T18:17:46.081Z,98551.67
2023-09-11T18:20:59.721Z,98559.45
2023-09-11T18:24:13.469Z,98563.46
2023-09-11T18:27:26.125Z,98558.63
2023-09-11T18:30:40.975Z,98560.75
2023-09-11T18:33:53.352Z,98558.34
2023-09-11T18:37:06.336Z,98560.91
2023-09-11T18:40:19.535Z,98563.27
2023-09-11T18:43:32.434Z,98565.39
2023-09-11T18:46:45.416Z,98571.39
2023-09-11T18:49:57.805Z,98571.88
2023-09-11T18:53:10.641Z,98573.27
2023-09-11T18:56:23.815Z,98569.61
2023-09-11T18:59:36.583Z,98568.30
2023-09-11T19:02:48.992Z,98569.43
2023-09-11T19:06:01.983Z,98572.11
2023-09-11T19:09:15.031Z,98567.77
2023-09-11T19:12:27.585Z,98563.94
2023-09-11T19:15:41.422Z,98569.22
2023-09-11T19:18:54.051Z,98568.63
2023-09-11T19:22:07.820Z,98570.50
2023-09-11T19:25:20.735Z,98565.99
2023-09-11T19:28:33.496Z,98568.56
2023-09-11T19:31:45.881Z,98567.91
2023-09-11T19:35:00.650Z,98569.47
2023-09-11T19:38:13.566Z,98581.20
2023-09-11T19:41:26.225Z,98569.77
2023-09-11T19:44:38.598Z,98570.44
2023-09-11T19:47:51.182Z,98576.11
2023-09-11T19:51:04.500Z,98573.20
2023-09-11T19:54:18.636Z,98575.13
2023-09-11T19:57:34.010Z,98567.53
2023-09-11T20:00:46.392Z,98567.91
2023-09-11T20:03:59.300Z,98571.88
2023-09-11T20:07:12.314Z,98570.52
2023-09-11T20:10:25.485Z,98575.61
2023-09-11T20:13:37.670Z,98570.85
2023-09-11T20:16:50.140Z,98576.34
2023-09-11T20:20:03.131Z,98571.59
2023-09-11T20:23:15.671Z,98576.20
2023-09-11T20:26:28.343Z,98570.69
2023-09-11T20:29:40.930Z,98575.56
2023-09-11T20:32:53.407Z,98580.39
2023-09-11T20:36:05.935Z,98581.06
2023-09-11T20:39:18.812Z,98583.55
2023-09-11T20:42:31.243Z,98582.48
2023-09-11T20:45:43.755Z,98577.75
2023-09-11T20:48:58.752Z,98583.80
2023-09-11T20:52:11.967Z,98573.47
2023-09-11T20:55:24.682Z,98579.73
2023-09-11T20:58:37.596Z,98583.69
2023-09-11T21:01:50.242Z,98593.27
2023-09-11T21:05:02.883Z,98590.81
2023-09-11T21:08:15.694Z,98586.89
2023-09-11T21:11:28.644Z,98586.72
2023-09-11T21:14:41.028Z,98586.73
2023-09-11T21:17:54.498Z,98586.72
2023-09-11T21:21:06.893Z,98577.17
2023-09-11T21:24:19.100Z,98589.66
2023-09-11T21:27:31.377Z,98594.67
2023-09-11T21:30:43.733Z,98588.03
2023-09-11T21:33:56.182Z,98586.62
2023-09-11T21:37:08.538Z,98580.21
2023-09-11T21:40:21.552Z,98588.93
2023-09-11T21:43:33.663Z,98579.19
2023-09-11T21:46:45.965Z,98589.55
2023-09-11T21:49:58.414Z,98586.67
2023-09-11T21:53:10.725Z,98580.44
2023-09-11T21:56:22.752Z,98590.61
2023-09-11T21:59:35.343Z,98583.57
2023-09-11T22:02:47.752Z,98577.74
2023-09-11T22:06:02.756Z,98577.96
2023-09-11T22:09:15.410Z,98573.22
2023-09-11T22:12:27.762Z,98580.47
2023-09-11T22:15:43.603Z,98573.84
2023-09-11T22:18:55.756Z,98572.59
2023-09-11T22:22:08.220Z,98582.95
2023-09-11T22:25:20.351Z,98569.91
2023-09-11T22:28:32.664Z,98577.76
2023-09-11T22:31:45.071Z,98581.48
2023-09-11T22:34:57.369Z,98586.04
2023-09-11T22:38:12.383Z,98575.68
2023-09-11T22:41:25.270Z,98576.92
2023-09-11T22:44:40.462Z,98576.92
2023-09-11T22:47:55.167Z,98572.17
2023-09-11T22:51:12.617Z,98569.05
2023-09-11T22:54:25.046Z,98572.38
2023-09-11T22:57:37.421Z,98567.82
2023-09-11T23:00:49.978Z,98565.70
2023-09-11T23:04:02.320Z,98569.84
2023-09-11T23:07:14.697Z,98571.55
2023-09-11T23:10:27.025Z,98569.86
2023-09-11T23:13:39.309Z,98564.67
2023-09-11T23:16:51.421Z,98563.23
2023-09-11T23:20:05.705Z,98570.26
2023-09-11T23:23:17.780Z,98573.16
2023-09-11T23:26:30.233Z,98569.02
2023-09-11T23:29:42.696Z,98566.92
2023-09-11T23:32:55.314Z,98541.39
2023-09-11T23:36:09.077Z,98563.34
2023-09-11T23:39:21.621Z,98569.33
2023-09-11T23:42:33.954Z,98569.72
2023-09-11T23:45:47.811Z,98566.41
2023-09-11T23:49:00.297Z,98568.84
2023-09-11T23:52:25.381Z,98564.66
2023-09-11T23:55:29.346Z,98568.39
2023-09-11T23:58:42.097Z,98566.37
